Overseas Luzon — V7NE5 — position and weather

sailwx.info

Track history (hours):
 
Tides and Currents Weather Stations Pressure Air Temp Water Temp Dewpoint Dewpoint Depression Visibility Wind Speed Wind Dir Waves Ship Positions

Overseas Luzon

Last reported at 2017-Nov-20 00:28 UTC. Time now 2017-Nov-23 05:37 UTC.
Position N 33°44' W 118°13'.

Length 228 m; draft 8.2 m.

Type: Tanker. MMSI: 538002946.

Date/timePositionNaut miles runAvg speedWind from/ knotsBaromVisibWave heightAir tempDewpointWater temp
2017-Nov-20 00:28N 33°44' W 118°13'0 0.0
2017-Nov-19 21:55N 33°44' W 118°13'0 0.0
2017-Nov-19 21:16N 33°44' W 118°13'0 0.1
2017-Nov-19 20:58N 33°44' W 118°13'0 0.0
2017-Nov-19 20:07N 33°44' W 118°13'0 0.2
2017-Nov-19 19:58N 33°44' W 118°13'0 0.3
2017-Nov-19 19:28N 33°44' W 118°13'0 0.1
2017-Nov-19 16:07N 33°43' W 118°13'0 0.0
2017-Nov-19 10:31N 33°43' W 118°13'0 0.1
2017-Nov-19 09:25N 33°43' W 118°13'0 0.3
2017-Nov-19 08:58N 33°44' W 118°13'0 0.0
2017-Nov-19 08:13N 33°44' W 118°13'0 0.0
2017-Nov-19 07:37N 33°44' W 118°13'0 0.1
2017-Nov-19 07:25N 33°44' W 118°13'0 0.1
2017-Nov-19 06:55N 33°43' W 118°13'0 0.1
2017-Nov-19 06:25N 33°43' W 118°13'0 0.0
2017-Nov-19 05:55N 33°43' W 118°13'0 0.0
2017-Nov-19 05:25N 33°43' W 118°13'0 0.0
2017-Nov-19 04:13N 33°44' W 118°13'0 0.1
2017-Nov-19 01:07N 33°43' W 118°13'0 0.3
2017-Nov-19 00:55N 33°43' W 118°13'0 0.3
2017-Nov-19 00:25N 33°43' W 118°13'0 0.0
2017-Nov-18 23:49N 33°44' W 118°13'0 0.0
2017-Nov-18 23:25N 33°44' W 118°13'0 0.0
2017-Nov-18 22:55N 33°44' W 118°13'0 0.0
2017-Nov-18 22:25N 33°44' W 118°13'0 0.0
2017-Nov-18 21:37N 33°44' W 118°13'0 0.0
2017-Nov-18 21:13N 33°44' W 118°13'5 0.2
2017-Nov-17 17:19N 33°39' W 118°10'2 5.2
2017-Nov-17 16:59N 33°38' W 118°11'3 6.1
2017-Nov-17 16:30N 33°37' W 118°14'611.0
2017-Nov-17 15:59N 33°36' W 118°21'912.1
2017-Nov-17 15:15N 33°37' W 118°32'312.5
2017-Nov-17 15:01N 33°37' W 118°35'612.1
2017-Nov-17 14:31N 33°38' W 118°43'612.0
2017-Nov-17 14:01N 33°38' W 118°50'611.9
2017-Nov-17 13:30N 33°38' W 118°57'510.0
2017-Nov-17 13:01N 33°38' W 119°03'2 3.9
2017-Nov-17 12:31N 33°38' W 119°05'612.9
2017-Nov-17 12:00N 33°38' W 119°13'713.3
2017-Nov-17 11:30N 33°38' W 119°21'713.7
2017-Nov-17 11:01N 33°39' W 119°29'713.8
2017-Nov-17 10:30N 33°38' W 119°38'713.9
2017-Nov-17 10:00N 33°38' W 119°46'713.6
2017-Nov-17 09:30N 33°38' W 119°54'714.1
2017-Nov-17 09:00N 33°38' W 120°03'713.8
2017-Nov-17 08:30N 33°38' W 120°11'713.7
2017-Nov-17 08:00N 33°38' W 120°19'713.9
2017-Nov-17 07:29N 33°45' W 120°24'713.9
2017-Nov-17 07:00N 33°51' W 120°27'713.2
2017-Nov-17 06:30N 33°55' W 120°33'713.5
2017-Nov-17 06:00N 33°58' W 120°41'713.7
2017-Nov-17 05:30N 34°01' W 120°48'713.7
2017-Nov-17 05:00N 34°05' W 120°55'713.5
2017-Nov-17 04:30N 34°10' W 121°01'713.4
2017-Nov-17 04:00N 34°14' W 121°06'713.4
2017-Nov-17 03:30N 34°20' W 121°11'713.2
2017-Nov-17 03:00N 34°26' W 121°15'713.5
2017-Nov-17 02:30N 34°32' W 121°19'713.5
2017-Nov-17 02:00N 34°37' W 121°23'713.1
2017-Nov-17 01:30N 34°43' W 121°27'713.2
2017-Nov-17 01:00N 34°49' W 121°31'713.5
2017-Nov-17 00:30N 34°55' W 121°35'913.6
2017-Nov-16 23:51N 35°02' W 121°41'513.8
2017-Nov-16 23:30N 35°06' W 121°44'6913.3
2017-Nov-16 18:21N 36°07' W 122°24'813.3
2017-Nov-16 17:43N 36°14' W 122°29'313.2
2017-Nov-16 17:30N 36°17' W 122°30'7313.3
2017-Nov-16 12:01N 37°23' W 123°08'213.1
2017-Nov-16 11:54N 37°24' W 123°09'510.8
2017-Nov-16 11:27N 37°29' W 123°12'3 6.9
2017-Nov-16 11:00N 37°31' W 123°09'510.4
2017-Nov-16 10:30N 37°34' W 123°04'510.7
2017-Nov-16 10:00N 37°37' W 122°58'510.5
2017-Nov-16 09:30N 37°40' W 122°53'510.4
2017-Nov-16 09:00N 37°44' W 122°48'510.0
2017-Nov-16 08:30N 37°46' W 122°43'510.4
2017-Nov-16 08:00N 37°47' W 122°36'713.3
2017-Nov-16 07:30N 37°49' W 122°28'4 7.8
2017-Nov-16 07:00N 37°50' W 122°24'0 0.2
2017-Nov-16 06:28N 37°49' W 122°23'0 1.1
2017-Nov-16 06:00N 37°49' W 122°24'3 5.5
2017-Nov-16 05:30N 37°52' W 122°25'610.9
2017-Nov-16 05:00N 37°57' W 122°27'611.2
2017-Nov-16 04:30N 38°02' W 122°23'612.5
2017-Nov-16 04:00N 38°04' W 122°15'611.1
2017-Nov-16 03:30N 38°02' W 122°09'0 1.0
2017-Nov-16 03:00N 38°02' W 122°08'0 0.0
2017-Nov-16 01:27N 38°02' W 122°08'0 0.0
2017-Nov-16 01:00N 38°02' W 122°08'0 0.0
2017-Nov-16 00:30N 38°02' W 122°08'0 0.0
2017-Nov-16 00:00N 38°02' W 122°08'0 0.0
2017-Nov-15 23:30N 38°02' W 122°08'0 0.0
2017-Nov-15 23:00N 38°02' W 122°08'0 0.0
2017-Nov-15 22:30N 38°02' W 122°08'0 0.0
2017-Nov-15 22:00N 38°02' W 122°08'0 0.0
2017-Nov-15 21:30N 38°02' W 122°08'0 0.0
2017-Nov-15 20:59N 38°02' W 122°08'0 0.0
2017-Nov-15 20:29N 38°02' W 122°08'0 0.0
2017-Nov-15 20:00N 38°02' W 122°08'0 0.0
2017-Nov-15 19:24N 38°02' W 122°08'0 0.0
2017-Nov-15 19:00N 38°02' W 122°08'0 0.0
2017-Nov-15 18:30N 38°02' W 122°08'0 0.0
2017-Nov-15 18:00N 38°02' W 122°08'0 0.0
2017-Nov-15 17:30N 38°02' W 122°08'0 0.0
2017-Nov-15 17:00N 38°02' W 122°08'0 0.0
2017-Nov-15 16:30N 38°02' W 122°08'0 0.0
2017-Nov-15 16:00N 38°02' W 122°08'0 0.0
2017-Nov-15 15:30N 38°02' W 122°08'0 0.0
2017-Nov-15 15:00N 38°02' W 122°08'0 0.0
2017-Nov-15 14:30N 38°02' W 122°08'0 0.0
2017-Nov-15 14:00N 38°02' W 122°08'0 0.0
2017-Nov-15 13:26N 38°02' W 122°08'0 0.0
2017-Nov-15 12:57N 38°02' W 122°08'0 0.0
2017-Nov-15 12:30N 38°02' W 122°08'0 0.0
2017-Nov-15 12:00N 38°02' W 122°08'0 0.0
2017-Nov-15 11:30N 38°02' W 122°08'0 0.0
2017-Nov-15 11:00N 38°02' W 122°08'0 0.0
2017-Nov-15 10:30N 38°02' W 122°08'0 0.0
2017-Nov-15 10:00N 38°02' W 122°08'0 0.0
2017-Nov-15 09:30N 38°02' W 122°08'0 0.0
2017-Nov-15 09:00N 38°02' W 122°08'0 0.0
2017-Nov-15 08:30N 38°02' W 122°08'0 0.0
2017-Nov-15 07:57N 38°02' W 122°08'0 0.0
2017-Nov-15 07:30N 38°02' W 122°08'0 0.0
2017-Nov-15 07:00N 38°02' W 122°08'0 0.0
2017-Nov-15 06:30N 38°02' W 122°08'0 0.0
2017-Nov-15 06:00N 38°02' W 122°08'0 0.0
2017-Nov-15 05:30N 38°02' W 122°08'0 0.0
2017-Nov-15 05:00N 38°02' W 122°08'0 0.0
2017-Nov-15 04:30N 38°02' W 122°08'0 0.0
2017-Nov-15 04:00N 38°02' W 122°08'0 0.0
2017-Nov-15 03:30N 38°02' W 122°08'0 0.0
2017-Nov-15 03:00N 38°02' W 122°08'0 0.0
2017-Nov-15 02:30N 38°02' W 122°08'0 0.0
2017-Nov-15 02:00N 38°02' W 122°08'0 0.0
2017-Nov-15 01:30N 38°02' W 122°08'0 0.0
2017-Nov-15 00:59N 38°02' W 122°08'0 0.0
2017-Nov-14 20:49N 38°02' W 122°08'0 0.0
2017-Nov-14 20:24N 38°02' W 122°08'0 0.0
2017-Nov-14 20:00N 38°02' W 122°08'0 0.0
2017-Nov-14 19:30N 38°02' W 122°08'0 0.0
2017-Nov-14 19:00N 38°02' W 122°08'0 0.0
2017-Nov-14 18:30N 38°02' W 122°08'0 0.0
2017-Nov-14 18:00N 38°02' W 122°08'0 0.0
2017-Nov-14 17:30N 38°02' W 122°08'0 0.0
2017-Nov-14 17:00N 38°02' W 122°08'0 0.0
2017-Nov-14 16:29N 38°02' W 122°08'0 0.0
2017-Nov-14 16:00N 38°02' W 122°08'0 0.0
2017-Nov-14 15:30N 38°02' W 122°08'0 0.0
2017-Nov-14 15:00N 38°02' W 122°08'0 0.0
2017-Nov-14 14:30N 38°02' W 122°08'0 0.0
2017-Nov-14 14:00N 38°02' W 122°08'0 0.0
2017-Nov-14 13:30N 38°02' W 122°08'0 0.0
2017-Nov-14 13:00N 38°02' W 122°08'0 0.0
2017-Nov-14 12:30N 38°02' W 122°08'0 0.0
2017-Nov-14 12:00N 38°02' W 122°08'0 0.0
2017-Nov-14 11:30N 38°02' W 122°08'0 0.0
2017-Nov-14 10:59N 38°02' W 122°08'0 0.0
2017-Nov-14 10:30N 38°02' W 122°08'0 0.0
2017-Nov-14 09:48N 38°02' W 122°08'0 0.0
2017-Nov-14 09:29N 38°02' W 122°08'0 0.0
2017-Nov-14 09:00N 38°02' W 122°08'0 0.8
2017-Nov-14 08:30N 38°02' W 122°08'3 5.6
2017-Nov-14 07:59N 38°03' W 122°12'5 9.6
2017-Nov-14 07:30N 38°03' W 122°17'510.2
2017-Nov-14 07:00N 38°01' W 122°23'510.5
2017-Nov-14 06:30N 37°57' W 122°27'511.0
2017-Nov-14 06:00N 37°51' W 122°25'3 6.0
2017-Nov-14 05:30N 37°49' W 122°27'5 9.2
2017-Nov-14 05:00N 37°47' W 122°32'612.7
2017-Nov-14 04:30N 37°45' W 122°40'4 8.9
2017-Nov-14 04:00N 37°42' W 122°44'3 6.2
2017-Nov-14 03:30N 37°40' W 122°47'4 8.9
2017-Nov-14 03:00N 37°38' W 122°52'5 9.9
2017-Nov-14 02:30N 37°35' W 122°57'510.3
2017-Nov-14 02:00N 37°32' W 123°03'5 9.9
2017-Nov-14 01:29N 37°29' W 123°08'39 1.7
2017-Nov-13 02:00N 36°56' W 122°43'0 0.6
2017-Nov-13 01:30N 36°56' W 122°43'0 0.6
2017-Nov-13 01:00N 36°56' W 122°43'0 0.6
2017-Nov-13 00:30N 36°56' W 122°43'0 0.6
2017-Nov-13 00:00N 36°56' W 122°44'0 0.6
2017-Nov-12 23:30N 36°55' W 122°44'0 0.7
2017-Nov-12 23:00N 36°55' W 122°45'0 0.8
2017-Nov-12 22:30N 36°55' W 122°45'12 0.7
2017-Nov-12 05:44N 37°03' W 122°57'0 1.2
2017-Nov-12 05:20N 37°04' W 122°57'1 1.1
2017-Nov-12 04:10N 37°04' W 122°58'0 1.0
2017-Nov-12 03:58N 37°05' W 122°58'1 1.1
2017-Nov-12 03:11N 37°05' W 122°59'0 1.1
2017-Nov-12 03:00N 37°05' W 122°59'1 1.1
2017-Nov-12 02:12N 37°06' W 123°00'2 1.2
2017-Nov-12 00:37N 37°07' W 123°02'0 1.0
2017-Nov-12 00:18N 37°08' W 123°02'0 0.9
2017-Nov-11 23:57N 37°08' W 123°02'0 0.8
2017-Nov-11 23:25N 37°08' W 123°02'2 0.7
2017-Nov-11 20:50N 37°10' W 123°03'2 1.0
2017-Nov-11 18:24N 37°12' W 123°03'2 1.0
2017-Nov-11 16:33N 37°14' W 123°05'1 0.8
2017-Nov-11 15:44N 37°15' W 123°05'0 0.8
2017-Nov-11 15:21N 37°15' W 123°05'9 0.7
2017-Nov-11 02:32N 37°24' W 123°05'1 1.3
2017-Nov-11 02:00N 37°24' W 123°06'15 0.7
2017-Nov-10 04:05N 37°32' W 123°22'0 0.7
2017-Nov-10 04:00N 37°32' W 123°22'1 0.8
2017-Nov-10 03:05N 37°33' W 123°22'1 0.8
2017-Nov-10 01:09N 37°33' W 123°24'  
Track history (hours):
 
Tides and Currents Weather Stations Pressure Air Temp Water Temp Dewpoint Dewpoint Depression Visibility Wind Speed Wind Dir Waves Ship Positions

Overseas Luzon

Last reported at 2017-Nov-20 00:28 UTC. Time now 2017-Nov-23 05:37 UTC.
Position N 33°44' W 118°13'.

Length 228 m; draft 8.2 m.

Type: Tanker. MMSI: 538002946.

Date/timePositionNaut miles runAvg speedWind from/ knotsBaromVisibWave heightAir tempDewpointWater temp
2017-Nov-20 00:28N 33°44' W 118°13'0 0.0
2017-Nov-19 21:55N 33°44' W 118°13'0 0.0
2017-Nov-19 21:16N 33°44' W 118°13'0 0.1
2017-Nov-19 20:58N 33°44' W 118°13'0 0.0
2017-Nov-19 20:07N 33°44' W 118°13'0 0.2
2017-Nov-19 19:58N 33°44' W 118°13'0 0.3
2017-Nov-19 19:28N 33°44' W 118°13'0 0.1
2017-Nov-19 16:07N 33°43' W 118°13'0 0.0
2017-Nov-19 10:31N 33°43' W 118°13'0 0.1
2017-Nov-19 09:25N 33°43' W 118°13'0 0.3
2017-Nov-19 08:58N 33°44' W 118°13'0 0.0
2017-Nov-19 08:13N 33°44' W 118°13'0 0.0
2017-Nov-19 07:37N 33°44' W 118°13'0 0.1
2017-Nov-19 07:25N 33°44' W 118°13'0 0.1
2017-Nov-19 06:55N 33°43' W 118°13'0 0.1
2017-Nov-19 06:25N 33°43' W 118°13'0 0.0
2017-Nov-19 05:55N 33°43' W 118°13'0 0.0
2017-Nov-19 05:25N 33°43' W 118°13'0 0.0
2017-Nov-19 04:13N 33°44' W 118°13'0 0.1
2017-Nov-19 01:07N 33°43' W 118°13'0 0.3
2017-Nov-19 00:55N 33°43' W 118°13'0 0.3
2017-Nov-19 00:25N 33°43' W 118°13'0 0.0
2017-Nov-18 23:49N 33°44' W 118°13'0 0.0
2017-Nov-18 23:25N 33°44' W 118°13'0 0.0
2017-Nov-18 22:55N 33°44' W 118°13'0 0.0
2017-Nov-18 22:25N 33°44' W 118°13'0 0.0
2017-Nov-18 21:37N 33°44' W 118°13'0 0.0
2017-Nov-18 21:13N 33°44' W 118°13'5 0.2
2017-Nov-17 17:19N 33°39' W 118°10'2 5.2
2017-Nov-17 16:59N 33°38' W 118°11'3 6.1
2017-Nov-17 16:30N 33°37' W 118°14'611.0
2017-Nov-17 15:59N 33°36' W 118°21'912.1
2017-Nov-17 15:15N 33°37' W 118°32'312.5
2017-Nov-17 15:01N 33°37' W 118°35'612.1
2017-Nov-17 14:31N 33°38' W 118°43'612.0
2017-Nov-17 14:01N 33°38' W 118°50'611.9
2017-Nov-17 13:30N 33°38' W 118°57'510.0
2017-Nov-17 13:01N 33°38' W 119°03'2 3.9
2017-Nov-17 12:31N 33°38' W 119°05'612.9
2017-Nov-17 12:00N 33°38' W 119°13'713.3
2017-Nov-17 11:30N 33°38' W 119°21'713.7
2017-Nov-17 11:01N 33°39' W 119°29'713.8
2017-Nov-17 10:30N 33°38' W 119°38'713.9
2017-Nov-17 10:00N 33°38' W 119°46'713.6
2017-Nov-17 09:30N 33°38' W 119°54'714.1
2017-Nov-17 09:00N 33°38' W 120°03'713.8
2017-Nov-17 08:30N 33°38' W 120°11'713.7
2017-Nov-17 08:00N 33°38' W 120°19'713.9
2017-Nov-17 07:29N 33°45' W 120°24'713.9
2017-Nov-17 07:00N 33°51' W 120°27'713.2
2017-Nov-17 06:30N 33°55' W 120°33'713.5
2017-Nov-17 06:00N 33°58' W 120°41'713.7
2017-Nov-17 05:30N 34°01' W 120°48'713.7
2017-Nov-17 05:00N 34°05' W 120°55'713.5
2017-Nov-17 04:30N 34°10' W 121°01'713.4
2017-Nov-17 04:00N 34°14' W 121°06'713.4
2017-Nov-17 03:30N 34°20' W 121°11'713.2
2017-Nov-17 03:00N 34°26' W 121°15'713.5
2017-Nov-17 02:30N 34°32' W 121°19'713.5
2017-Nov-17 02:00N 34°37' W 121°23'713.1
2017-Nov-17 01:30N 34°43' W 121°27'713.2
2017-Nov-17 01:00N 34°49' W 121°31'713.5
2017-Nov-17 00:30N 34°55' W 121°35'913.6
2017-Nov-16 23:51N 35°02' W 121°41'513.8
2017-Nov-16 23:30N 35°06' W 121°44'6913.3
2017-Nov-16 18:21N 36°07' W 122°24'813.3
2017-Nov-16 17:43N 36°14' W 122°29'313.2
2017-Nov-16 17:30N 36°17' W 122°30'7313.3
2017-Nov-16 12:01N 37°23' W 123°08'213.1
2017-Nov-16 11:54N 37°24' W 123°09'510.8
2017-Nov-16 11:27N 37°29' W 123°12'3 6.9
2017-Nov-16 11:00N 37°31' W 123°09'510.4
2017-Nov-16 10:30N 37°34' W 123°04'510.7
2017-Nov-16 10:00N 37°37' W 122°58'510.5
2017-Nov-16 09:30N 37°40' W 122°53'510.4
2017-Nov-16 09:00N 37°44' W 122°48'510.0
2017-Nov-16 08:30N 37°46' W 122°43'510.4
2017-Nov-16 08:00N 37°47' W 122°36'713.3
2017-Nov-16 07:30N 37°49' W 122°28'4 7.8
2017-Nov-16 07:00N 37°50' W 122°24'0 0.2
2017-Nov-16 06:28N 37°49' W 122°23'0 1.1
2017-Nov-16 06:00N 37°49' W 122°24'3 5.5
2017-Nov-16 05:30N 37°52' W 122°25'610.9
2017-Nov-16 05:00N 37°57' W 122°27'611.2
2017-Nov-16 04:30N 38°02' W 122°23'612.5
2017-Nov-16 04:00N 38°04' W 122°15'611.1
2017-Nov-16 03:30N 38°02' W 122°09'0 1.0
2017-Nov-16 03:00N 38°02' W 122°08'0 0.0
2017-Nov-16 01:27N 38°02' W 122°08'0 0.0
2017-Nov-16 01:00N 38°02' W 122°08'0 0.0
2017-Nov-16 00:30N 38°02' W 122°08'0 0.0
2017-Nov-16 00:00N 38°02' W 122°08'0 0.0
2017-Nov-15 23:30N 38°02' W 122°08'0 0.0
2017-Nov-15 23:00N 38°02' W 122°08'0 0.0
2017-Nov-15 22:30N 38°02' W 122°08'0 0.0
2017-Nov-15 22:00N 38°02' W 122°08'0 0.0
2017-Nov-15 21:30N 38°02' W 122°08'0 0.0
2017-Nov-15 20:59N 38°02' W 122°08'0 0.0
2017-Nov-15 20:29N 38°02' W 122°08'0 0.0
2017-Nov-15 20:00N 38°02' W 122°08'0 0.0
2017-Nov-15 19:24N 38°02' W 122°08'0 0.0
2017-Nov-15 19:00N 38°02' W 122°08'0 0.0
2017-Nov-15 18:30N 38°02' W 122°08'0 0.0
2017-Nov-15 18:00N 38°02' W 122°08'0 0.0
2017-Nov-15 17:30N 38°02' W 122°08'0 0.0
2017-Nov-15 17:00N 38°02' W 122°08'0 0.0
2017-Nov-15 16:30N 38°02' W 122°08'0 0.0
2017-Nov-15 16:00N 38°02' W 122°08'0 0.0
2017-Nov-15 15:30N 38°02' W 122°08'0 0.0
2017-Nov-15 15:00N 38°02' W 122°08'0 0.0
2017-Nov-15 14:30N 38°02' W 122°08'0 0.0
2017-Nov-15 14:00N 38°02' W 122°08'0 0.0
2017-Nov-15 13:26N 38°02' W 122°08'0 0.0
2017-Nov-15 12:57N 38°02' W 122°08'0 0.0
2017-Nov-15 12:30N 38°02' W 122°08'0 0.0
2017-Nov-15 12:00N 38°02' W 122°08'0 0.0
2017-Nov-15 11:30N 38°02' W 122°08'0 0.0
2017-Nov-15 11:00N 38°02' W 122°08'0 0.0
2017-Nov-15 10:30N 38°02' W 122°08'0 0.0
2017-Nov-15 10:00N 38°02' W 122°08'0 0.0
2017-Nov-15 09:30N 38°02' W 122°08'0 0.0
2017-Nov-15 09:00N 38°02' W 122°08'0 0.0
2017-Nov-15 08:30N 38°02' W 122°08'0 0.0
2017-Nov-15 07:57N 38°02' W 122°08'0 0.0
2017-Nov-15 07:30N 38°02' W 122°08'0 0.0
2017-Nov-15 07:00N 38°02' W 122°08'0 0.0
2017-Nov-15 06:30N 38°02' W 122°08'0 0.0
2017-Nov-15 06:00N 38°02' W 122°08'0 0.0
2017-Nov-15 05:30N 38°02' W 122°08'0 0.0
2017-Nov-15 05:00N 38°02' W 122°08'0 0.0
2017-Nov-15 04:30N 38°02' W 122°08'0 0.0
2017-Nov-15 04:00N 38°02' W 122°08'0 0.0
2017-Nov-15 03:30N 38°02' W 122°08'0 0.0
2017-Nov-15 03:00N 38°02' W 122°08'0 0.0
2017-Nov-15 02:30N 38°02' W 122°08'0 0.0
2017-Nov-15 02:00N 38°02' W 122°08'0 0.0
2017-Nov-15 01:30N 38°02' W 122°08'0 0.0
2017-Nov-15 00:59N 38°02' W 122°08'0 0.0
2017-Nov-14 20:49N 38°02' W 122°08'0 0.0
2017-Nov-14 20:24N 38°02' W 122°08'0 0.0
2017-Nov-14 20:00N 38°02' W 122°08'0 0.0
2017-Nov-14 19:30N 38°02' W 122°08'0 0.0
2017-Nov-14 19:00N 38°02' W 122°08'0 0.0
2017-Nov-14 18:30N 38°02' W 122°08'0 0.0
2017-Nov-14 18:00N 38°02' W 122°08'0 0.0
2017-Nov-14 17:30N 38°02' W 122°08'0 0.0
2017-Nov-14 17:00N 38°02' W 122°08'0 0.0
2017-Nov-14 16:29N 38°02' W 122°08'0 0.0
2017-Nov-14 16:00N 38°02' W 122°08'0 0.0
2017-Nov-14 15:30N 38°02' W 122°08'0 0.0
2017-Nov-14 15:00N 38°02' W 122°08'0 0.0
2017-Nov-14 14:30N 38°02' W 122°08'0 0.0
2017-Nov-14 14:00N 38°02' W 122°08'0 0.0
2017-Nov-14 13:30N 38°02' W 122°08'0 0.0
2017-Nov-14 13:00N 38°02' W 122°08'0 0.0
2017-Nov-14 12:30N 38°02' W 122°08'0 0.0
2017-Nov-14 12:00N 38°02' W 122°08'0 0.0
2017-Nov-14 11:30N 38°02' W 122°08'0 0.0
2017-Nov-14 10:59N 38°02' W 122°08'0 0.0
2017-Nov-14 10:30N 38°02' W 122°08'0 0.0
2017-Nov-14 09:48N 38°02' W 122°08'0 0.0
2017-Nov-14 09:29N 38°02' W 122°08'0 0.0
2017-Nov-14 09:00N 38°02' W 122°08'0 0.8
2017-Nov-14 08:30N 38°02' W 122°08'3 5.6
2017-Nov-14 07:59N 38°03' W 122°12'5 9.6
2017-Nov-14 07:30N 38°03' W 122°17'510.2
2017-Nov-14 07:00N 38°01' W 122°23'510.5
2017-Nov-14 06:30N 37°57' W 122°27'511.0
2017-Nov-14 06:00N 37°51' W 122°25'3 6.0
2017-Nov-14 05:30N 37°49' W 122°27'5 9.2
2017-Nov-14 05:00N 37°47' W 122°32'612.7
2017-Nov-14 04:30N 37°45' W 122°40'4 8.9
2017-Nov-14 04:00N 37°42' W 122°44'3 6.2
2017-Nov-14 03:30N 37°40' W 122°47'4 8.9
2017-Nov-14 03:00N 37°38' W 122°52'5 9.9
2017-Nov-14 02:30N 37°35' W 122°57'510.3
2017-Nov-14 02:00N 37°32' W 123°03'5 9.9
2017-Nov-14 01:29N 37°29' W 123°08'39 1.7
2017-Nov-13 02:00N 36°56' W 122°43'0 0.6
2017-Nov-13 01:30N 36°56' W 122°43'0 0.6
2017-Nov-13 01:00N 36°56' W 122°43'0 0.6
2017-Nov-13 00:30N 36°56' W 122°43'0 0.6
2017-Nov-13 00:00N 36°56' W 122°44'0 0.6
2017-Nov-12 23:30N 36°55' W 122°44'0 0.7
2017-Nov-12 23:00N 36°55' W 122°45'0 0.8
2017-Nov-12 22:30N 36°55' W 122°45'12 0.7
2017-Nov-12 05:44N 37°03' W 122°57'0 1.2
2017-Nov-12 05:20N 37°04' W 122°57'1 1.1
2017-Nov-12 04:10N 37°04' W 122°58'0 1.0
2017-Nov-12 03:58N 37°05' W 122°58'1 1.1
2017-Nov-12 03:11N 37°05' W 122°59'0 1.1
2017-Nov-12 03:00N 37°05' W 122°59'1 1.1
2017-Nov-12 02:12N 37°06' W 123°00'2 1.2
2017-Nov-12 00:37N 37°07' W 123°02'0 1.0
2017-Nov-12 00:18N 37°08' W 123°02'0 0.9
2017-Nov-11 23:57N 37°08' W 123°02'0 0.8
2017-Nov-11 23:25N 37°08' W 123°02'2 0.7
2017-Nov-11 20:50N 37°10' W 123°03'2 1.0
2017-Nov-11 18:24N 37°12' W 123°03'2 1.0
2017-Nov-11 16:33N 37°14' W 123°05'1 0.8
2017-Nov-11 15:44N 37°15' W 123°05'0 0.8
2017-Nov-11 15:21N 37°15' W 123°05'9 0.7
2017-Nov-11 02:32N 37°24' W 123°05'1 1.3
2017-Nov-11 02:00N 37°24' W 123°06'15 0.7
2017-Nov-10 04:05N 37°32' W 123°22'0 0.7
2017-Nov-10 04:00N 37°32' W 123°22'1 0.8
2017-Nov-10 03:05N 37°33' W 123°22'1 0.8
2017-Nov-10 01:09N 37°33' W 123°24'  

Dump ship's entire track history